| time (UTC) | temp C | wind direction | speed KPH | gust KPH | rain 1hr cm | rain 24hr cm | rain mn cm | humidity % | barometer mb |
| 20260506004239 | 18 | 184 | 4.8 | 6.4 | 0.00 | 0.00 | 0.00 | 74 | 1029.8 |
| 20260506003735 | 18 | 104 | 4.8 | 8.0 | 0.00 | 0.00 | 0.00 | 72 | 1029.3 |
| 20260506003231 | 18 | 228 | 1.6 | 1.6 | 0.00 | 0.00 | 0.00 | 73 | 1029.5 |
| 20260506002727 | 18 | 173 | 4.8 | 6.4 | 0.00 | 0.00 | 0.00 | 72 | 1029.4 |
| 20260506002224 | 18 | 227 | 1.6 | 1.6 | 0.00 | 0.00 | 0.00 | 72 | 1029.7 |
| 20260506001720 | 18 | 164 | 4.8 | 8.0 | 0.00 | 0.00 | 0.00 | 71 | 1029.5 |
| 20260506001218 | 18 | 146 | 4.8 | 6.4 | 0.00 | 0.00 | 0.00 | 72 | 1029.5 |
| 20260506000714 | 19 | 114 | 4.8 | 9.7 | 0.00 | 0.00 | 0.00 | 71 | 1029.5 |
| 20260506000212 | 19 | 229 | 1.6 | 3.2 | 0.00 | 0.00 | 0.00 | 69 | 1029.3 |
| 20260505235709 | 19 | 203 | 6.4 | 8.0 | 0.00 | 0.00 | 0.00 | 69 | 1029.5 |
| 20260505235207 | 20 | 89 | 4.8 | 8.0 | 0.00 | 0.00 | 0.00 | 69 | 1029.3 |
| 20260505234703 | 20 | 150 | 8.0 | 9.7 | 0.00 | 0.00 | 0.00 | 68 | 1029.2 |
| 20260505234200 | 20 | 151 | 6.4 | 9.7 | 0.00 | 0.00 | 0.00 | 68 | 1029.3 |
| 20260505233657 | 20 | 150 | 9.7 | 11.3 | 0.00 | 0.00 | 0.00 | 67 | 1029.5 |
| 20260505233155 | 20 | 203 | 4.8 | 8.0 | 0.00 | 0.00 | 0.00 | 66 | 1029.4 |
| 20260505232652 | 20 | 151 | 11.3 | 14.5 | 0.00 | 0.00 | 0.00 | 64 | 1029.1 |
| 20260505232150 | 20 | 162 | 8.0 | 12.9 | 0.00 | 0.00 | 0.00 | 63 | 1029.5 |
| 20260505231646 | 20 | 152 | 6.4 | 9.7 | 0.00 | 0.00 | 0.00 | 63 | 1029.4 |
| 20260505231145 | 20 | 195 | 8.0 | 11.3 | 0.00 | 0.00 | 0.00 | 61 | 1029.4 |
| 20260505230642 | 21 | 170 | 9.7 | 12.9 | 0.00 | 0.00 | 0.00 | 60 | 1029.3 |
| 20260505230138 | 21 | 113 | 1.6 | 3.2 | 0.00 | 0.00 | 0.00 | 61 | 1029.4 |
| 20260505225634 | 21 | 168 | 4.8 | 8.0 | 0.00 | 0.00 | 0.00 | 59 | 1029.3 |
| 20260505225131 | 21 | 173 | 14.5 | 19.3 | 0.00 | 0.00 | 0.00 | 58 | 1029.4 |
| 20260505224627 | 21 | 109 | 11.3 | 14.5 | 0.00 | 0.00 | 0.00 | 58 | 1029.5 |
| 20260505224125 | 21 | 161 | 6.4 | 8.0 | 0.00 | 0.00 | 0.00 | 58 | 1029.5 |
| 20260505223622 | 21 | 186 | 8.0 | 11.3 | 0.00 | 0.00 | 0.00 | 57 | 1029.6 |
| 20260505223118 | 21 | 238 | 3.2 | 3.2 | 0.00 | 0.00 | 0.00 | 58 | 1029.3 |
| 20260505222615 | 21 | 131 | 6.4 | 8.0 | 0.00 | 0.00 | 0.00 | 58 | 1029.5 |
| 20260505222111 | 22 | 165 | 8.0 | 12.9 | 0.00 | 0.00 | 0.00 | 56 | 1029.4 |
| 20260505221609 | 22 | 155 | 9.7 | 11.3 | 0.00 | 0.00 | 0.00 | 55 | 1029.4 |
| 20260505221105 | 21 | 202 | 3.2 | 3.2 | 0.00 | 0.00 | 0.00 | 57 | 1029.4 |
| 20260505220602 | 22 | 206 | 11.3 | 17.7 | 0.00 | 0.00 | 0.00 | 55 | 1029.5 |
| 20260505220100 | 22 | 161 | 4.8 | 8.0 | 0.00 | 0.00 | 0.00 | 55 | 1029.6 |
| 20260505215557 | 22 | 168 | 12.9 | 17.7 | 0.00 | 0.00 | 0.00 | 54 | 1029.5 |
| 20260505215055 | 22 | 123 | 4.8 | 6.4 | 0.00 | 0.00 | 0.00 | 53 | 1029.6 |
| 20260505214553 | 22 | 161 | 8.0 | 9.7 | 0.00 | 0.00 | 0.00 | 53 | 1029.5 |
| 20260505214049 | 23 | 131 | 8.0 | 9.7 | 0.00 | 0.00 | 0.00 | 53 | 1029.3 |
| 20260505213548 | 23 | 171 | 6.4 | 11.3 | 0.00 | 0.00 | 0.00 | 52 | 1029.4 |
| 20260505213043 | 23 | 108 | 14.5 | 17.7 | 0.00 | 0.00 | 0.00 | 52 | 1029.2 |
| 20260505212540 | 23 | 101 | 4.8 | 8.0 | 0.00 | 0.00 | 0.00 | 50 | 1029.3 |
| 20260505212038 | 24 | 159 | 11.3 | 12.9 | 0.00 | 0.00 | 0.00 | 50 | 1029.3 |
| 20260505211534 | 24 | 140 | 1.6 | 6.4 | 0.00 | 0.00 | 0.00 | 50 | 1029.5 |
| 20260505211031 | 23 | 161 | 8.0 | 11.3 | 0.00 | 0.00 | 0.00 | 51 | 1029.3 |
| 20260505210528 | 24 | 177 | 4.8 | 6.4 | 0.00 | 0.00 | 0.00 | 48 | 1029.2 |
| 20260505210025 | 23 | 124 | 9.7 | 11.3 | 0.00 | 0.00 | 0.00 | 50 | 1029.5 |
| 20260505205523 | 23 | 183 | 6.4 | 14.5 | 0.00 | 0.00 | 0.00 | 49 | 1029.4 |
| 20260505205020 | 23 | 160 | 14.5 | 19.3 | 0.00 | 0.00 | 0.00 | 49 | 1029.5 |
| 20260505204518 | 23 | 133 | 8.0 | 12.9 | 0.00 | 0.00 | 0.00 | 49 | 1029.6 |
| 20260505204015 | 23 | 134 | 17.7 | 22.5 | 0.00 | 0.00 | 0.00 | 50 | 1029.5 |
| 20260505203511 | 23 | 242 | 6.4 | 11.3 | 0.00 | 0.00 | 0.00 | 50 | 1029.3 |
| 20260505203008 | 23 | 136 | 19.3 | 22.5 | 0.00 | 0.00 | 0.00 | 49 | 1029.4 |
| 20260505202504 | 24 | 154 | 14.5 | 22.5 | 0.00 | 0.00 | 0.00 | 48 | 1029.3 |
| 20260505202000 | 24 | 187 | 8.0 | 11.3 | 0.00 | 0.00 | 0.00 | 50 | 1029.3 |
| 20260505201457 | 24 | 123 | 9.7 | 11.3 | 0.00 | 0.00 | 0.00 | 49 | 1029.4 |
| 20260505200955 | 24 | 253 | 3.2 | 6.4 | 0.00 | 0.00 | 0.00 | 48 | 1029.5 |
| 20260505200453 | 25 | 152 | 11.3 | 12.9 | 0.00 | 0.00 | 0.00 | 48 | 1029.3 |
| 20260505195948 | 25 | 237 | 1.6 | 1.6 | 0.00 | 0.00 | 0.00 | 50 | 1029.4 |
| 20260505195445 | 24 | 231 | 1.6 | 3.2 | 0.00 | 0.00 | 0.00 | 49 | 1029.6 |
| 20260505194943 | 24 | 226 | 4.8 | 9.7 | 0.00 | 0.00 | 0.00 | 50 | 1029.5 |
| 20260505194440 | 24 | 171 | 4.8 | 8.0 | 0.00 | 0.00 | 0.00 | 50 | 1029.7 |
| 20260505193940 | 25 | 226 | 6.4 | 8.0 | 0.00 | 0.00 | 0.00 | 49 | 1029.9 |
| 20260505193438 | 24 | 82 | 6.4 | 9.7 | 0.00 | 0.00 | 0.00 | 48 | 1030.0 |
| 20260505192935 | 24 | 152 | 16.1 | 19.3 | 0.00 | 0.00 | 0.00 | 48 | 1030.0 |
| 20260505192433 | 25 | 152 | 14.5 | 17.7 | 0.00 | 0.00 | 0.00 | 48 | 1030.1 |
| 20260505191931 | 25 | 173 | 6.4 | 9.7 | 0.00 | 0.00 | 0.00 | 48 | 1030.1 |
| 20260505191429 | 24 | 148 | 14.5 | 17.7 | 0.00 | 0.00 | 0.00 | 52 | 1030.4 |
| 20260505190925 | 23 | 183 | 6.4 | 8.0 | 0.00 | 0.00 | 0.00 | 48 | 1030.4 |
| 20260505190421 | 24 | 173 | 11.3 | 14.5 | 0.00 | 0.00 | 0.00 | 48 | 1030.2 |
| 20260505185916 | 25 | 138 | 14.5 | 20.9 | 0.00 | 0.00 | 0.00 | 47 | 1030.3 |
| 20260505185414 | 25 | 130 | 11.3 | 14.5 | 0.00 | 0.00 | 0.00 | 47 | 1030.3 |
| 20260505184910 | 24 | 135 | 12.9 | 17.7 | 0.00 | 0.00 | 0.00 | 49 | 1030.5 |
| 20260505184407 | 25 | 119 | 14.5 | 27.4 | 0.00 | 0.00 | 0.00 | 48 | 1030.1 |
| 20260505183904 | 24 | 102 | 6.4 | 8.0 | 0.00 | 0.00 | 0.00 | 49 | 1030.3 |
| 20260505183401 | 25 | 149 | 6.4 | 8.0 | 0.00 | 0.00 | 0.00 | 50 | 1030.1 |
| 20260505182857 | 25 | 140 | 6.4 | 8.0 | 0.00 | 0.00 | 0.00 | 50 | 1030.3 |
| 20260505182354 | 25 | 226 | 8.0 | 9.7 | 0.00 | 0.00 | 0.00 | 45 | 1030.4 |
| 20260505181851 | 23 | 120 | 11.3 | 12.9 | 0.00 | 0.00 | 0.00 | 47 | 1030.4 |
| 20260505181348 | 24 | 134 | 11.3 | 12.9 | 0.00 | 0.00 | 0.00 | 50 | 1030.5 |
| 20260505180845 | 25 | 118 | 9.7 | 12.9 | 0.00 | 0.00 | 0.00 | 48 | 1030.6 |
| 20260505180341 | 25 | 118 | 9.7 | 12.9 | 0.00 | 0.00 | 0.00 | 48 | 1030.6 |
| 20260505175838 | 24 | 127 | 12.9 | 12.9 | 0.00 | 0.00 | 0.00 | 48 | 1030.6 |
| 20260505175334 | 23 | 133 | 9.7 | 17.7 | 0.00 | 0.00 | 0.00 | 49 | 1030.7 |
| 20260505174831 | 25 | 146 | 6.4 | 12.9 | 0.00 | 0.00 | 0.00 | 49 | 1030.6 |
| 20260505174328 | 25 | 149 | 9.7 | 19.3 | 0.00 | 0.00 | 0.00 | 48 | 1030.6 |
| 20260505173824 | 24 | 245 | 4.8 | 8.0 | 0.00 | 0.00 | 0.00 | 49 | 1030.6 |
| 20260505173320 | 24 | 255 | 4.8 | 8.0 | 0.00 | 0.00 | 0.00 | 48 | 1030.7 |
| 20260505172818 | 25 | 170 | 14.5 | 17.7 | 0.00 | 0.00 | 0.00 | 48 | 1030.7 |
| 20260505172316 | 24 | 206 | 1.6 | 3.2 | 0.00 | 0.00 | 0.00 | 48 | 1030.7 |
| 20260505171815 | 23 | 182 | 4.8 | 8.0 | 0.00 | 0.00 | 0.00 | 51 | 1030.9 |
| 20260505171313 | 24 | 210 | 4.8 | 6.4 | 0.00 | 0.00 | 0.00 | 48 | 1030.8 |
| 20260505170808 | 23 | 176 | 8.0 | 11.3 | 0.00 | 0.00 | 0.00 | 50 | 1031.0 |
| 20260505170306 | 24 | 211 | 4.8 | 6.4 | 0.00 | 0.00 | 0.00 | 48 | 1031.0 |
| 20260505165801 | 23 | 161 | 8.0 | 11.3 | 0.00 | 0.00 | 0.00 | 48 | 1031.1 |
| 20260505165257 | 23 | 113 | 11.3 | 12.9 | 0.00 | 0.00 | 0.00 | 51 | 1031.1 |
| 20260505164753 | 24 | 143 | 12.9 | 14.5 | 0.00 | 0.00 | 0.00 | 50 | 1031.1 |
| 20260505164250 | 25 | 114 | 12.9 | 17.7 | 0.00 | 0.00 | 0.00 | 49 | 1031.0 |
| 20260505163748 | 24 | 45 | 8.0 | 12.9 | 0.00 | 0.00 | 0.00 | 49 | 1031.2 |
| 20260505163247 | 24 | 151 | 3.2 | 6.4 | 0.00 | 0.00 | 0.00 | 46 | 1031.4 |
| 20260505162744 | 23 | 211 | 3.2 | 6.4 | 0.00 | 0.00 | 0.00 | 49 | 1031.1 |
| 20260505162241 | 23 | 142 | 9.7 | 11.3 | 0.00 | 0.00 | 0.00 | 47 | 1031.3 |
| 20260505161737 | 24 | 99 | 16.1 | 20.9 | 0.00 | 0.00 | 0.00 | 46 | 1031.3 |
| 20260505161235 | 23 | 184 | 17.7 | 22.5 | 0.00 | 0.00 | 0.00 | 49 | 1031.2 |
| 20260505160732 | 24 | 128 | 6.4 | 11.3 | 0.00 | 0.00 | 0.00 | 50 | 1031.3 |
| 20260505160230 | 24 | 206 | 0.0 | 0.0 | 0.00 | 0.00 | 0.00 | 52 | 1031.5 |
| 20260505153209 | 23 | 94 | 4.8 | 8.0 | 0.00 | 0.00 | 0.00 | 55 | 1031.5 |
| 20260505152706 | 23 | 196 | 3.2 | 8.0 | 0.00 | 0.00 | 0.00 | 52 | 1031.6 |
| 20260505152202 | 22 | 224 | 3.2 | 3.2 | 0.00 | 0.00 | 0.00 | 56 | 1031.8 |
| 20260505151657 | 23 | 207 | 9.7 | 11.3 | 0.00 | 0.00 | 0.00 | 53 | 1031.5 |
| 20260505151155 | 23 | 221 | 3.2 | 3.2 | 0.00 | 0.00 | 0.00 | 54 | 1031.6 |
| 20260505150650 | 22 | 277 | 3.2 | 3.2 | 0.00 | 0.00 | 0.00 | 53 | 1031.6 |
| 20260505150148 | 22 | 269 | 3.2 | 8.0 | 0.00 | 0.00 | 0.00 | 55 | 1031.7 |
| 20260505140616 | 22 | 254 | 4.8 | 9.7 | 0.00 | 0.00 | 0.00 | 58 | 1031.6 |
| 20260505140114 | 21 | 198 | 4.8 | 8.0 | 0.00 | 0.00 | 0.00 | 61 | 1031.7 |
| 20260505125030 | 18 | 255 | 3.2 | 3.2 | 0.00 | 0.00 | 0.00 | 74 | 1031.4 |
| 20260505124526 | 18 | 200 | 3.2 | 6.4 | 0.00 | 0.00 | 0.00 | 75 | 1031.5 |
| 20260505124023 | 18 | 143 | 3.2 | 3.2 | 0.00 | 0.00 | 0.00 | 75 | 1031.4 |
| 20260505123519 | 18 | 259 | 1.6 | 1.6 | 0.00 | 0.00 | 0.00 | 75 | 1031.4 |
| 20260505123015 | 18 | 254 | 0.0 | 1.6 | 0.00 | 0.00 | 0.00 | 75 | 1031.5 |
| 20260505122513 | 18 | 347 | 0.0 | 0.0 | 0.00 | 0.00 | 0.00 | 76 | 1031.4 |
| 20260505122010 | 17 | 330 | 0.0 | 0.0 | 0.00 | 0.00 | 0.00 | 79 | 1031.5 |
| 20260505121506 | 15 | 69 | 0.0 | 0.0 | 0.00 | 0.00 | 0.00 | 86 | 1031.5 |
| 20260505121003 | 14 | 236 | 0.0 | 0.0 | 0.00 | 0.00 | 0.00 | 89 | 1031.4 |
| 20260505120459 | 13 | 215 | 0.0 | 0.0 | 0.00 | 0.00 | 0.00 | 90 | 1031.2 |
| 20260505115958 | 13 | 211 | 0.0 | 0.0 | 0.00 | 0.00 | 0.00 | 91 | 1031.3 |
| 20260505115454 | 12 | 234 | 0.0 | 0.0 | 0.00 | 0.00 | 0.00 | 92 | 1031.4 |
| 20260505114953 | 12 | 239 | 0.0 | 0.0 | 0.00 | 0.00 | 0.00 | 93 | 1031.3 |
| 20260505114448 | 11 | 243 | 0.0 | 0.0 | 0.00 | 0.00 | 0.00 | 94 | 1031.4 |
| 20260505113946 | 11 | 248 | 0.0 | 0.0 | 0.00 | 0.00 | 0.00 | 94 | 1031.1 |
| 20260505113442 | 10 | 235 | 0.0 | 0.0 | 0.00 | 0.00 | 0.00 | 94 | 1031.0 |
| 20260505112937 | 10 | 241 | 0.0 | 0.0 | 0.00 | 0.00 | 0.00 | 94 | 1031.0 |
| 20260505112435 | 10 | 250 | 0.0 | 0.0 | 0.00 | 0.00 | 0.00 | 94 | 1031.1 |
| 20260505111932 | 8 | 246 | 0.0 | 0.0 | 0.00 | 0.00 | 0.00 | 94 | 1030.7 |
| 20260505111426 | 8 | 247 | 0.0 | 0.0 | 0.00 | 0.00 | 0.00 | 94 | 1030.8 |
| 20260505110923 | 7 | 246 | 0.0 | 0.0 | 0.00 | 0.00 | 0.00 | 94 | 1030.8 |
| 20260505110420 | 7 | 247 | 0.0 | 0.0 | 0.00 | 0.00 | 0.00 | 94 | 1030.6 |
| 20260505101850 | 7 | 257 | 0.0 | 0.0 | 0.00 | 0.00 | 0.00 | 94 | 1030.2 |
| 20260505101345 | 7 | 258 | 0.0 | 0.0 | 0.00 | 0.00 | 0.00 | 94 | 1030.1 |
| 20260505100841 | 7 | 258 | 0.0 | 0.0 | 0.00 | 0.00 | 0.00 | 94 | 1030.1 |
| 20260505100338 | 7 | 258 | 0.0 | 0.0 | 0.00 | 0.00 | 0.00 | 94 | 1030.1 |
| 20260505095834 | 7 | 252 | 0.0 | 0.0 | 0.00 | 0.00 | 0.00 | 94 | 1030.1 |
| 20260505095332 | 7 | 248 | 0.0 | 0.0 | 0.00 | 0.00 | 0.00 | 94 | 1030.0 |
| 20260505094827 | 7 | 248 | 0.0 | 0.0 | 0.00 | 0.00 | 0.00 | 94 | 1030.0 |
| 20260505094325 | 7 | 247 | 0.0 | 0.0 | 0.00 | 0.00 | 0.00 | 94 | 1029.9 |
| 20260505093820 | 7 | 257 | 0.0 | 0.0 | 0.00 | 0.00 | 0.00 | 94 | 1030.0 |
| 20260505093318 | 7 | 258 | 0.0 | 0.0 | 0.00 | 0.00 | 0.00 | 94 | 1030.0 |
| 20260505092814 | 7 | 258 | 0.0 | 0.0 | 0.00 | 0.00 | 0.00 | 94 | 1029.7 |
| 20260505092313 | 7 | 258 | 0.0 | 0.0 | 0.00 | 0.00 | 0.00 | 94 | 1029.7 |
| 20260505091810 | 7 | 258 | 0.0 | 0.0 | 0.00 | 0.00 | 0.00 | 94 | 1029.8 |
| 20260505091308 | 7 | 253 | 0.0 | 0.0 | 0.00 | 0.00 | 0.00 | 94 | 1029.8 |
| 20260505090805 | 7 | 249 | 0.0 | 0.0 | 0.00 | 0.00 | 0.00 | 94 | 1029.6 |
| 20260505090304 | 7 | 235 | 0.0 | 0.0 | 0.00 | 0.00 | 0.00 | 94 | 1029.5 |
| 20260505085800 | 7 | 227 | 0.0 | 0.0 | 0.00 | 0.00 | 0.00 | 94 | 1029.6 |
| 20260505085258 | 7 | 257 | 0.0 | 0.0 | 0.00 | 0.00 | 0.00 | 94 | 1029.5 |
| 20260505084755 | 7 | 258 | 0.0 | 0.0 | 0.00 | 0.00 | 0.00 | 94 | 1029.4 |
| 20260505084249 | 8 | 258 | 0.0 | 0.0 | 0.00 | 0.00 | 0.00 | 94 | 1029.5 |
| 20260505083745 | 8 | 258 | 0.0 | 0.0 | 0.00 | 0.00 | 0.00 | 94 | 1029.5 |
| 20260505083242 | 7 | 253 | 0.0 | 0.0 | 0.00 | 0.00 | 0.00 | 94 | 1029.4 |
| 20260505082738 | 7 | 251 | 0.0 | 0.0 | 0.00 | 0.00 | 0.00 | 94 | 1029.5 |
| 20260505082235 | 7 | 243 | 0.0 | 0.0 | 0.00 | 0.00 | 0.00 | 94 | 1029.4 |
| 20260505081731 | 7 | 242 | 0.0 | 0.0 | 0.00 | 0.00 | 0.00 | 94 | 1029.3 |
| 20260505081229 | 8 | 218 | 0.0 | 0.0 | 0.00 | 0.00 | 0.00 | 94 | 1029.5 |
| 20260505080726 | 7 | 238 | 0.0 | 0.0 | 0.00 | 0.00 | 0.00 | 94 | 1029.4 |
| 20260505080221 | 7 | 254 | 0.0 | 0.0 | 0.00 | 0.00 | 0.00 | 94 | 1029.4 |
| 20260505075717 | 8 | 254 | 0.0 | 0.0 | 0.00 | 0.00 | 0.00 | 94 | 1029.4 |
| 20260505075214 | 8 | 254 | 0.0 | 0.0 | 0.00 | 0.00 | 0.00 | 94 | 1029.4 |
| 20260505074712 | 8 | 254 | 0.0 | 0.0 | 0.00 | 0.00 | 0.00 | 94 | 1029.4 |
| 20260505074208 | 8 | 254 | 0.0 | 0.0 | 0.00 | 0.00 | 0.00 | 94 | 1029.5 |
| 20260505073706 | 8 | 254 | 0.0 | 0.0 | 0.00 | 0.00 | 0.00 | 94 | 1029.4 |
| 20260505073204 | 8 | 254 | 0.0 | 0.0 | 0.00 | 0.00 | 0.00 | 94 | 1029.6 |
| 20260505072659 | 8 | 253 | 0.0 | 0.0 | 0.00 | 0.00 | 0.00 | 94 | 1029.4 |
| 20260505072156 | 8 | 246 | 0.0 | 0.0 | 0.00 | 0.00 | 0.00 | 94 | 1029.3 |
| 20260505071651 | 8 | 243 | 0.0 | 0.0 | 0.00 | 0.00 | 0.00 | 94 | 1029.4 |
| 20260505071149 | 8 | 233 | 0.0 | 0.0 | 0.00 | 0.00 | 0.00 | 94 | 1029.5 |
| 20260505070646 | 8 | 243 | 0.0 | 0.0 | 0.00 | 0.00 | 0.00 | 94 | 1029.5 |
| 20260505070143 | 8 | 246 | 0.0 | 0.0 | 0.00 | 0.00 | 0.00 | 94 | 1029.5 |
| 20260505065639 | 8 | 245 | 0.0 | 0.0 | 0.00 | 0.00 | 0.00 | 94 | 1029.5 |
| 20260505065135 | 8 | 244 | 0.0 | 0.0 | 0.00 | 0.00 | 0.00 | 93 | 1029.6 |
| 20260505064632 | 9 | 265 | 0.0 | 0.0 | 0.00 | 0.00 | 0.00 | 94 | 1029.5 |
| 20260505064131 | 9 | 265 | 0.0 | 0.0 | 0.00 | 0.00 | 0.00 | 93 | 1029.5 |
| 20260505063628 | 9 | 266 | 0.0 | 0.0 | 0.00 | 0.00 | 0.00 | 93 | 1029.4 |
| 20260505063124 | 9 | 267 | 0.0 | 0.0 | 0.00 | 0.00 | 0.00 | 93 | 1029.6 |
| 20260505062620 | 9 | 269 | 0.0 | 0.0 | 0.00 | 0.00 | 0.00 | 93 | 1029.7 |
| 20260505062118 | 9 | 254 | 0.0 | 0.0 | 0.00 | 0.00 | 0.00 | 93 | 1029.6 |
| 20260505061615 | 9 | 250 | 0.0 | 0.0 | 0.00 | 0.00 | 0.00 | 93 | 1029.8 |
| 20260505061113 | 9 | 244 | 0.0 | 0.0 | 0.00 | 0.00 | 0.00 | 93 | 1029.7 |
| 20260505060610 | 9 | 243 | 0.0 | 0.0 | 0.00 | 0.00 | 0.00 | 93 | 1029.8 |
| 20260505060107 | 9 | 243 | 0.0 | 0.0 | 0.00 | 0.00 | 0.00 | 93 | 1029.9 |
| 20260505055602 | 9 | 243 | 0.0 | 0.0 | 0.00 | 0.00 | 0.00 | 93 | 1029.8 |
| 20260505055059 | 9 | 226 | 0.0 | 0.0 | 0.00 | 0.00 | 0.00 | 93 | 1029.9 |
| 20260505054556 | 9 | 250 | 0.0 | 0.0 | 0.00 | 0.00 | 0.00 | 93 | 1030.1 |
| 20260505054054 | 9 | 248 | 0.0 | 0.0 | 0.00 | 0.00 | 0.00 | 92 | 1030.0 |
| 20260505053551 | 10 | 248 | 0.0 | 0.0 | 0.00 | 0.00 | 0.00 | 93 | 1030.2 |
| 20260505053048 | 10 | 247 | 0.0 | 0.0 | 0.00 | 0.00 | 0.00 | 93 | 1030.2 |
| 20260505052544 | 10 | 241 | 0.0 | 0.0 | 0.00 | 0.00 | 0.00 | 92 | 1030.3 |
| 20260505052042 | 10 | 241 | 0.0 | 0.0 | 0.00 | 0.00 | 0.00 | 92 | 1030.3 |
| 20260505051539 | 10 | 235 | 0.0 | 0.0 | 0.00 | 0.00 | 0.00 | 92 | 1030.4 |
| 20260505051037 | 10 | 240 | 0.0 | 0.0 | 0.00 | 0.00 | 0.00 | 92 | 1030.5 |
| 20260505050535 | 10 | 236 | 0.0 | 0.0 | 0.00 | 0.00 | 0.00 | 92 | 1030.6 |
| 20260505041502 | 11 | 257 | 0.0 | 0.0 | 0.00 | 0.00 | 0.00 | 90 | 1030.2 |
| 20260505041000 | 10 | 263 | 0.0 | 0.0 | 0.00 | 0.00 | 0.00 | 89 | 1030.2 |
| 20260505040457 | 10 | 252 | 0.0 | 0.0 | 0.00 | 0.00 | 0.00 | 89 | 1030.2 |
| 20260505035954 | 10 | 249 | 0.0 | 0.0 | 0.00 | 0.00 | 0.00 | 89 | 1030.3 |
| 20260505035450 | 11 | 243 | 0.0 | 0.0 | 0.00 | 0.00 | 0.00 | 89 | 1030.1 |
| 20260505034947 | 11 | 243 | 0.0 | 0.0 | 0.00 | 0.00 | 0.00 | 88 | 1030.4 |
| 20260505034443 | 11 | 242 | 0.0 | 0.0 | 0.00 | 0.00 | 0.00 | 88 | 1030.2 |
| 20260505033941 | 11 | 238 | 0.0 | 0.0 | 0.00 | 0.00 | 0.00 | 88 | 1030.3 |
| 20260505033437 | 11 | 228 | 0.0 | 0.0 | 0.00 | 0.00 | 0.00 | 88 | 1030.3 |
| 20260505032936 | 11 | 224 | 0.0 | 0.0 | 0.00 | 0.00 | 0.00 | 88 | 1030.2 |
| 20260505032433 | 11 | 235 | 0.0 | 0.0 | 0.00 | 0.00 | 0.00 | 87 | 1030.3 |
| 20260505031929 | 11 | 239 | 0.0 | 0.0 | 0.00 | 0.00 | 0.00 | 88 | 1030.3 |
| 20260505031426 | 11 | 258 | 0.0 | 0.0 | 0.00 | 0.00 | 0.00 | 87 | 1030.4 |
| 20260505030923 | 12 | 259 | 0.0 | 0.0 | 0.00 | 0.00 | 0.00 | 86 | 1030.3 |
| 20260505030419 | 12 | 259 | 0.0 | 0.0 | 0.00 | 0.00 | 0.00 | 86 | 1030.3 |
| 20260505025914 | 12 | 259 | 0.0 | 0.0 | 0.00 | 0.00 | 0.00 | 86 | 1030.5 |
| 20260505025412 | 12 | 259 | 0.0 | 0.0 | 0.00 | 0.00 | 0.00 | 86 | 1030.4 |
| 20260505024911 | 12 | 259 | 0.0 | 0.0 | 0.00 | 0.00 | 0.00 | 85 | 1030.6 |
| 20260505024408 | 12 | 259 | 0.0 | 0.0 | 0.00 | 0.00 | 0.00 | 84 | 1030.3 |
| 20260505023904 | 12 | 259 | 0.0 | 0.0 | 0.00 | 0.00 | 0.00 | 83 | 1030.3 |
| 20260505023402 | 12 | 259 | 0.0 | 0.0 | 0.00 | 0.00 | 0.00 | 83 | 1030.5 |
| 20260505022859 | 13 | 259 | 0.0 | 0.0 | 0.00 | 0.00 | 0.00 | 83 | 1030.5 |
| 20260505022356 | 13 | 259 | 0.0 | 0.0 | 0.00 | 0.00 | 0.00 | 82 | 1030.4 |
| 20260505021853 | 13 | 251 | 0.0 | 0.0 | 0.00 | 0.00 | 0.00 | 81 | 1030.6 |
| 20260505021349 | 13 | 243 | 0.0 | 0.0 | 0.00 | 0.00 | 0.00 | 81 | 1030.4 |
| 20260505020845 | 13 | 261 | 0.0 | 0.0 | 0.00 | 0.00 | 0.00 | 81 | 1030.5 |
| 20260505020341 | 13 | 274 | 0.0 | 0.0 | 0.00 | 0.00 | 0.00 | 78 | 1030.5 |
| 20260505015838 | 13 | 258 | 0.0 | 0.0 | 0.00 | 0.00 | 0.00 | 77 | 1030.2 |
| 20260505015335 | 14 | 244 | 0.0 | 0.0 | 0.00 | 0.00 | 0.00 | 75 | 1030.2 |
| 20260505014833 | 14 | 244 | 0.0 | 0.0 | 0.00 | 0.00 | 0.00 | 74 | 1030.3 |
| 20260505014329 | 15 | 244 | 0.0 | 0.0 | 0.00 | 0.00 | 0.00 | 72 | 1030.3 |
| 20260505013826 | 15 | 200 | 1.6 | 1.6 | 0.00 | 0.00 | 0.00 | 70 | 1030.2 |
| 20260505013323 | 15 | 213 | 1.6 | 1.6 | 0.00 | 0.00 | 0.00 | 69 | 1030.2 |
| 20260505012822 | 15 | 236 | 0.0 | 0.0 | 0.00 | 0.00 | 0.00 | 69 | 1030.1 |
| 20260505012319 | 16 | 240 | 0.0 | 0.0 | 0.00 | 0.00 | 0.00 | 68 | 1030.0 |
| 20260505011815 | 16 | 235 | 0.0 | 0.0 | 0.00 | 0.00 | 0.00 | 67 | 1029.9 |
| 20260505011312 | 16 | 223 | 0.0 | 1.6 | 0.00 | 0.00 | 0.00 | 67 | 1029.9 |
| 20260505010808 | 16 | 182 | 1.6 | 1.6 | 0.00 | 0.00 | 0.00 | 67 | 1029.7 |
| 20260505010304 | 16 | 221 | 0.0 | 0.0 | 0.00 | 0.00 | 0.00 | 66 | 1030.0 |
| 20260505005800 | 16 | 218 | 0.0 | 0.0 | 0.00 | 0.00 | 0.00 | 65 | 1029.7 |
| 20260505005257 | 16 | 214 | 1.6 | 1.6 | 0.00 | 0.00 | 0.00 | 64 | 1029.7 |
| 20260505004755 | 17 | 164 | 3.2 | 3.2 | 0.00 | 0.00 | 0.00 | 63 | 1029.6 |